Time;durP1;ratioP1;P1;durP2;ratioP2;P2;SDS_P1;SDS_P2;PMS_P1;PMS_P2;Temp;Humidity;BMP_temperature;BMP_pressure;BME280_temperature;BME280_humidity;BME280_pressure;Samples;Min_cycle;Max_cycle;Signal;HPM_P1;HPM_P2
2022/01/15 00:00:24;;;;;;;7.80;5.20;;;;;;;9.56;50.08;101521.06;4914786;29;20463;-75
2022/01/15 00:02:51;;;;;;;6.97;4.23;;;;;;;9.58;50.10;101516.09;4908976;29;20056;-76
2022/01/15 00:05:18;;;;;;;12.63;5.03;;;;;;;9.53;50.29;101509.56;4916378;29;20131;-75
2022/01/15 00:07:47;;;;;;;9.43;4.83;;;;;;;9.61;49.89;101517.53;4913563;29;20131;-76
2022/01/15 00:10:17;;;;;;;11.30;6.63;;;;;;;9.62;49.83;101510.84;4911409;29;20600;-76
2022/01/15 00:12:45;;;;;;;7.10;3.90;;;;;;;9.61;49.83;101503.59;4911862;29;20051;-74
2022/01/15 00:15:19;;;;;;;12.37;4.20;;;;;;;9.44;49.79;101481.25;4910495;29;20075;-75
2022/01/15 00:17:51;;;;;;;11.13;5.40;;;;;;;9.62;49.92;101505.28;4909056;29;20083;-75
2022/01/15 00:20:20;;;;;;;15.73;5.37;;;;;;;9.63;49.74;101499.44;4916014;29;20135;-75
2022/01/15 00:22:48;;;;;;;9.90;6.13;;;;;;;9.56;50.09;101495.97;4915735;29;20087;-75
2022/01/15 00:25:16;;;;;;;4.67;3.27;;;;;;;9.47;50.29;101494.69;4915017;29;20143;-75
2022/01/15 00:27:44;;;;;;;11.00;4.85;;;;;;;9.18;50.34;101465.97;4913717;29;20143;-75
2022/01/15 00:30:13;;;;;;;2.67;2.37;;;;;;;9.37;50.62;101494.50;4909126;29;20134;-75
2022/01/15 00:32:41;;;;;;;6.67;4.07;;;;;;;9.23;50.50;101468.84;4911910;29;20080;-73
2022/01/15 00:35:10;;;;;;;10.00;5.13;;;;;;;9.28;50.30;101465.34;4913186;29;20134;-73
2022/01/15 00:37:37;;;;;;;7.73;4.63;;;;;;;9.44;50.26;101489.63;4938354;29;20130;-74
2022/01/15 00:40:08;;;;;;;7.27;4.00;;;;;;;9.36;50.17;101484.44;4913177;29;20067;-74
2022/01/15 00:42:38;;;;;;;9.00;5.47;;;;;;;9.08;50.67;101435.97;4942117;29;20486;-80
2022/01/15 00:45:08;;;;;;;9.93;5.57;;;;;;;9.30;50.53;101480.72;4908919;29;20084;-75
2022/01/15 00:47:35;;;;;;;6.13;3.43;;;;;;;9.21;50.70;101469.13;4932835;29;20155;-74
2022/01/15 00:50:04;;;;;;;10.67;4.57;;;;;;;9.25;50.76;101473.09;4909177;29;20127;-72
2022/01/15 00:52:31;;;;;;;5.90;2.97;;;;;;;9.13;50.96;101463.94;4903239;29;20062;-72
2022/01/15 00:54:59;;;;;;;4.70;2.87;;;;;;;9.16;51.06;101469.03;4905783;29;20055;-72
2022/01/15 00:57:25;;;;;;;8.37;5.37;;;;;;;9.16;51.02;101463.47;4913019;29;20935;-71
2022/01/15 00:59:52;;;;;;;10.13;5.00;;;;;;;9.21;50.88;101466.31;4907624;29;20052;-70
2022/01/15 01:02:19;;;;;;;6.10;4.53;;;;;;;9.14;51.00;101456.44;4906986;29;20143;-72
2022/01/15 01:04:47;;;;;;;9.53;6.07;;;;;;;9.29;50.57;101462.28;4906800;29;20079;-71
2022/01/15 01:07:14;;;;;;;8.30;5.27;;;;;;;9.20;50.97;101453.50;4915164;29;20406;-72
2022/01/15 01:12:30;;;;;;;6.07;3.43;;;;;;;9.19;51.09;101450.94;4912369;29;20082;-71
2022/01/15 01:20:56;;;;;;;11.40;5.50;;;;;;;9.04;51.37;101450.66;4911790;29;20127;-71
2022/01/15 01:23:15;;;;;;;8.63;4.77;;;;;;;8.97;51.62;101453.59;4913970;29;20142;-71
2022/01/15 01:25:49;;;;;;;9.07;5.03;;;;;;;8.87;51.95;101453.38;4911896;29;20052;-73
2022/01/15 01:28:42;;;;;;;10.80;6.23;;;;;;;8.72;52.64;101443.63;4910230;29;20499;-72
2022/01/15 01:31:25;;;;;;;10.33;5.43;;;;;;;8.54;52.57;101415.94;4914327;29;20139;-72
2022/01/15 01:33:56;;;;;;;10.47;5.70;;;;;;;8.68;52.39;101433.19;4913909;29;20098;-74
2022/01/15 01:36:38;;;;;;;6.50;4.43;;;;;;;8.60;52.39;101420.53;4907174;29;20092;-76
2022/01/15 01:39:12;;;;;;;9.43;6.03;;;;;;;8.56;52.33;101416.53;4915832;29;20139;-74
2022/01/15 01:41:47;;;;;;;5.00;3.37;;;;;;;8.34;52.57;101393.19;4916138;29;20150;-77
2022/01/15 01:44:18;;;;;;;4.03;3.27;;;;;;;8.57;52.69;101431.31;4910050;29;20503;-75
2022/01/15 01:46:51;;;;;;;3.53;2.83;;;;;;;8.54;52.45;101429.84;4915408;29;20079;-76
2022/01/15 01:49:19;;;;;;;9.00;4.83;;;;;;;8.74;52.11;101432.22;4935024;29;20118;-73
2022/01/15 01:51:46;;;;;;;5.00;3.70;;;;;;;8.57;52.19;101404.31;4921326;29;20518;-74
2022/01/15 01:54:18;;;;;;;5.57;3.87;;;;;;;8.82;51.82;101428.19;4914155;29;20491;-73
2022/01/15 01:56:47;;;;;;;7.77;5.57;;;;;;;8.87;51.77;101433.88;4902281;29;20582;-74
2022/01/15 01:59:16;;;;;;;8.40;4.87;;;;;;;8.84;51.49;101426.03;4908673;29;20143;-74
2022/01/15 02:01:43;;;;;;;4.07;3.27;;;;;;;8.96;51.37;101433.25;4911133;29;20056;-73
2022/01/15 02:04:12;;;;;;;5.60;3.17;;;;;;;8.92;51.33;101436.75;4911516;29;20059;-72
2022/01/15 02:06:40;;;;;;;4.23;2.77;;;;;;;8.74;51.18;101408.00;4913371;29;20099;-71
2022/01/15 02:09:07;;;;;;;8.23;3.83;;;;;;;8.97;51.22;101431.31;4913168;29;20131;-70
2022/01/15 02:11:35;;;;;;;10.20;6.10;;;;;;;8.95;51.18;101427.91;4943202;29;20080;-69
2022/01/15 02:14:02;;;;;;;5.17;3.53;;;;;;;8.96;51.17;101435.19;4911855;29;20127;-69
2022/01/15 02:16:29;;;;;;;16.13;6.90;;;;;;;9.10;50.65;101430.16;4911350;29;20130;-69
2022/01/15 02:18:56;;;;;;;4.70;3.37;;;;;;;9.11;50.57;101432.69;4912007;29;20091;-69
2022/01/15 02:23:52;;;;;;;13.97;6.07;;;;;;;9.18;50.44;101426.97;4917355;29;20181;-70
2022/01/15 02:26:25;;;;;;;12.07;6.70;;;;;;;9.31;50.10;101431.38;4908574;29;20135;-70
2022/01/15 02:28:58;;;;;;;12.73;5.80;;;;;;;9.33;50.05;101441.16;4911819;29;20119;-71
2022/01/15 02:31:28;;;;;;;8.97;3.97;;;;;;;9.24;50.21;101435.16;4913990;29;20131;-71
2022/01/15 02:33:57;;;;;;;16.67;6.83;;;;;;;9.17;50.31;101428.91;4911472;29;20056;-71
2022/01/15 02:36:31;;;;;;;13.85;7.43;;;;;;;9.33;50.00;101434.75;4913200;29;20578;-71
2022/01/15 02:38:59;;;;;;;8.23;4.50;;;;;;;9.19;50.44;101431.44;4914113;29;20163;-71
2022/01/15 02:41:34;;;;;;;14.17;7.43;;;;;;;8.92;50.44;101389.41;4913579;29;20134;-72
2022/01/15 02:44:04;;;;;;;10.57;6.50;;;;;;;9.09;50.20;101404.22;4909941;29;20150;-70
2022/01/15 02:49:01;;;;;;;9.73;5.83;;;;;;;9.09;50.42;101418.16;4914156;29;20115;-71
2022/01/15 02:51:34;;;;;;;10.73;5.05;;;;;;;8.65;50.78;101381.66;4915656;29;20147;-71
2022/01/15 02:54:03;;;;;;;9.43;5.43;;;;;;;8.71;51.35;101425.19;4911817;29;20094;-72
2022/01/15 02:56:35;;;;;;;14.27;5.30;;;;;;;8.70;51.17;101415.16;4912508;29;20135;-72
2022/01/15 02:59:04;;;;;;;9.40;3.67;;;;;;;8.76;51.22;101424.47;4906762;29;20492;-71
2022/01/15 03:01:32;;;;;;;5.43;3.53;;;;;;;8.46;51.53;101389.34;4912826;29;20476;-70
2022/01/15 03:04:01;;;;;;;9.98;3.45;;;;;;;8.59;51.27;101432.75;4911422;29;20194;-70
2022/01/15 03:06:28;;;;;;;7.03;4.60;;;;;;;8.18;51.60;101351.13;4910859;29;20087;-72
2022/01/15 03:08:55;;;;;;;6.27;4.77;;;;;;;8.47;51.57;101404.09;4913484;29;20059;-72
2022/01/15 03:11:23;;;;;;;10.57;5.03;;;;;;;8.53;51.86;101415.09;4912519;29;20091;-73
2022/01/15 03:13:50;;;;;;;4.63;3.43;;;;;;;8.51;51.82;101410.84;4911005;29;20135;-73
2022/01/15 03:16:20;;;;;;;5.13;1.70;;;;;;;8.54;51.50;101405.63;4908190;29;20091;-72
2022/01/15 03:18:48;;;;;;;6.35;4.22;;;;;;;8.60;51.58;101414.09;4915674;29;20052;-73
2022/01/15 03:21:15;;;;;;;12.87;6.43;;;;;;;8.62;51.38;101418.34;4912144;29;20090;-71
2022/01/15 03:23:43;;;;;;;4.63;3.43;;;;;;;8.46;51.50;101396.84;4912922;29;20498;-72
2022/01/15 03:26:13;;;;;;;6.97;4.33;;;;;;;8.49;51.69;101402.75;4911772;29;20044;-73
2022/01/15 03:28:41;;;;;;;;;;;;;;;8.54;51.49;101410.38;4909573;29;20587;-72
2022/01/15 03:31:09;;;;;;;11.03;5.73;;;;;;;8.53;51.22;101386.41;4912121;29;20013;-71
2022/01/15 03:33:36;;;;;;;10.03;4.83;;;;;;;8.51;51.06;101363.53;4915345;29;20095;-69
2022/01/15 03:36:06;;;;;;;7.07;2.78;;;;;;;8.49;51.12;101377.72;4914816;29;20064;-71
2022/01/15 03:38:34;;;;;;;3.87;2.47;;;;;;;8.50;51.65;101404.44;4913875;29;20139;-76
2022/01/15 03:41:01;;;;;;;4.10;3.17;;;;;;;8.47;51.68;101409.66;4910716;29;20146;-73
2022/01/15 03:43:28;;;;;;;10.70;3.37;;;;;;;8.14;51.89;101361.06;4910990;29;20521;-70
2022/01/15 03:45:55;;;;;;;6.20;2.67;;;;;;;8.41;51.75;101405.06;4908916;29;20051;-73
2022/01/15 03:48:24;;;;;;;6.80;4.37;;;;;;;8.44;51.72;101404.59;4909275;29;20111;-73
2022/01/15 03:50:52;;;;;;;8.07;4.53;;;;;;;8.21;51.68;101367.34;4913376;29;20144;-73
2022/01/15 03:53:21;;;;;;;5.50;2.87;;;;;;;8.42;52.07;101401.22;4910708;29;20135;-74
2022/01/15 03:55:49;;;;;;;5.10;3.97;;;;;;;8.24;51.79;101357.66;4908976;29;20112;-73
2022/01/15 03:58:17;;;;;;;10.80;4.30;;;;;;;8.54;51.52;101390.88;4910504;29;20723;-75
2022/01/15 04:00:44;;;;;;;5.87;3.67;;;;;;;8.47;51.80;101399.38;4898137;29;20488;-75
2022/01/15 04:03:11;;;;;;;6.80;3.57;;;;;;;8.49;51.78;101391.63;4905091;29;20519;-77
2022/01/15 04:05:38;;;;;;;5.00;2.73;;;;;;;8.20;51.87;101337.81;4909161;29;20138;-75
2022/01/15 04:08:06;;;;;;;6.33;2.73;;;;;;;8.38;51.67;101355.50;4906280;29;20555;-75
2022/01/15 04:10:33;;;;;;;9.83;5.77;;;;;;;8.68;51.42;101383.97;4912123;29;20135;-76
2022/01/15 04:13:00;;;;;;;10.33;5.87;;;;;;;8.58;51.13;101342.00;4911888;29;20060;-78
2022/01/15 04:15:27;;;;;;;6.20;3.27;;;;;;;8.88;51.03;101388.22;4910011;29;20151;-76
2022/01/15 04:17:54;;;;;;;8.63;5.67;;;;;;;8.89;50.88;101371.28;4911886;29;20126;-74
2022/01/15 04:20:23;;;;;;;14.47;6.63;;;;;;;8.96;50.93;101380.31;4913617;29;20087;-75
2022/01/15 04:22:52;;;;;;;5.00;2.20;;;;;;;8.92;50.81;101368.00;4911514;29;20080;-75
2022/01/15 04:25:20;;;;;;;5.50;3.60;;;;;;;8.95;50.95;101373.03;4904846;29;20107;-78
2022/01/15 04:27:48;;;;;;;3.80;3.33;;;;;;;8.96;50.85;101371.13;4916518;29;20083;-78
2022/01/15 04:30:17;;;;;;;3.50;3.17;;;;;;;8.91;50.85;101366.28;4930515;29;20046;-76
2022/01/15 04:32:44;;;;;;;10.23;3.07;;;;;;;8.86;50.99;101363.41;4922144;29;20067;-78
2022/01/15 04:35:11;;;;;;;8.57;4.10;;;;;;;8.87;50.93;101364.25;4913096;29;20139;-77
2022/01/15 04:37:42;;;;;;;8.13;3.27;;;;;;;8.64;50.92;101329.84;4911290;29;20481;-77
2022/01/15 04:40:11;;;;;;;7.60;3.57;;;;;;;8.87;50.86;101358.69;4909823;29;20551;-80
2022/01/15 04:42:38;;;;;;;5.00;3.40;;;;;;;8.73;50.81;101347.00;4909122;29;20054;-78
2022/01/15 04:45:09;;;;;;;4.90;3.33;;;;;;;8.80;50.84;101346.84;4906160;29;20056;-74
2022/01/15 04:47:37;;;;;;;8.87;3.97;;;;;;;8.88;51.03;101354.78;4911337;29;20051;-74
2022/01/15 04:50:07;;;;;;;4.70;2.43;;;;;;;8.84;50.68;101320.19;4911016;29;20155;-72
2022/01/15 04:52:36;;;;;;;5.15;3.63;;;;;;;8.96;50.16;101310.66;4906672;29;20099;-71
2022/01/15 04:55:04;;;;;;;8.00;5.07;;;;;;;9.34;50.01;101348.09;4909019;29;20108;-74
2022/01/15 04:57:31;;;;;;;10.97;5.30;;;;;;;9.38;49.90;101354.84;4914568;29;20084;-74
2022/01/15 04:59:58;;;;;;;7.67;4.03;;;;;;;9.30;49.95;101357.22;4910390;29;20139;-74
2022/01/15 05:02:25;;;;;;;10.93;4.63;;;;;;;9.34;49.99;101358.41;4913070;29;20135;-76
2022/01/15 05:04:52;;;;;;;8.43;4.73;;;;;;;9.08;50.13;101324.50;4913644;29;20091;-73
2022/01/15 05:07:21;;;;;;;11.70;4.30;;;;;;;9.18;50.11;101337.78;4917127;29;20076;-74
2022/01/15 05:09:49;;;;;;;4.43;3.50;;;;;;;9.34;49.52;101353.69;4901853;29;20162;-72
2022/01/15 05:12:28;;;;;;;8.03;3.10;;;;;;;8.99;49.83;101298.16;4907803;29;20472;-73
2022/01/15 05:14:55;;;;;;;3.23;2.87;;;;;;;9.22;50.13;101356.53;4912534;29;20096;-73
2022/01/15 05:17:22;;;;;;;7.30;2.30;;;;;;;9.15;50.25;101346.66;4914975;29;20193;-74
2022/01/15 05:19:50;;;;;;;4.37;2.73;;;;;;;9.09;50.53;101350.44;4912227;29;20184;-75
2022/01/15 05:22:17;;;;;;;4.50;3.30;;;;;;;9.06;50.32;101340.66;4916291;29;20585;-76
2022/01/15 05:24:44;;;;;;;10.97;4.50;;;;;;;9.05;50.48;101326.97;4916451;29;20064;-75
2022/01/15 05:27:11;;;;;;;9.57;4.47;;;;;;;9.18;50.42;101351.72;4910069;29;20067;-73
2022/01/15 05:29:37;;;;;;;4.80;2.57;;;;;;;9.14;50.59;101354.16;4912340;29;20104;-74
2022/01/15 05:32:05;;;;;;;10.53;5.13;;;;;;;9.07;50.98;101335.94;4912676;29;20100;-72
2022/01/15 05:34:36;;;;;;;3.83;2.90;;;;;;;8.88;51.19;101332.50;4916150;29;20079;-73
2022/01/15 05:37:03;;;;;;;5.60;3.43;;;;;;;8.86;51.77;101345.84;4916726;29;20123;-72
2022/01/15 05:39:30;;;;;;;4.13;2.67;;;;;;;8.75;51.54;101320.59;4910720;29;20182;-74
2022/01/15 05:41:57;;;;;;;8.87;4.27;;;;;;;8.84;51.42;101328.53;4914446;29;20166;-74
2022/01/15 05:44:24;;;;;;;10.77;5.80;;;;;;;9.11;50.96;101346.31;4931269;29;20221;-74
2022/01/15 05:46:51;;;;;;;8.57;4.17;;;;;;;9.05;50.79;101326.97;4939275;29;20048;-74
2022/01/15 05:49:18;;;;;;;7.87;4.90;;;;;;;9.25;50.77;101347.66;4933234;29;20055;-75
2022/01/15 05:51:45;;;;;;;2.87;2.17;;;;;;;9.14;50.92;101353.31;4937711;29;20049;-69
2022/01/15 05:54:13;;;;;;;3.13;1.93;;;;;;;8.95;51.26;101319.25;4939102;29;20033;-75
2022/01/15 05:56:40;;;;;;;9.73;3.73;;;;;;;8.76;51.27;101300.00;4941115;29;20056;-75
2022/01/15 05:59:08;;;;;;;4.80;2.70;;;;;;;9.01;51.26;101332.19;4969135;28;20036;-75
2022/01/15 06:01:36;;;;;;;7.70;4.23;;;;;;;8.76;51.30;101288.84;4935787;29;20044;-77
2022/01/15 06:04:04;;;;;;;6.53;3.33;;;;;;;9.05;51.40;101338.09;4928772;29;20052;-74
2022/01/15 06:06:31;;;;;;;3.60;2.30;;;;;;;8.86;51.71;101312.44;4913683;29;20056;-75
2022/01/15 06:08:58;;;;;;;4.53;2.10;;;;;;;8.82;51.92;101300.06;4916915;29;20499;-72
2022/01/15 06:11:26;;;;;;;7.77;3.40;;;;;;;8.98;51.76;101335.47;4912861;29;20052;-76
2022/01/15 06:13:54;;;;;;;9.17;5.07;;;;;;;9.01;51.61;101338.59;4909570;29;20051;-73
2022/01/15 06:16:21;;;;;;;7.73;3.53;;;;;;;9.06;51.48;101334.22;4912355;29;20094;-75
2022/01/15 06:18:49;;;;;;;8.40;4.60;;;;;;;8.99;51.76;101326.88;4913555;29;20052;-75
2022/01/15 06:21:16;;;;;;;4.57;3.07;;;;;;;8.99;52.03;101334.38;4911645;29;20052;-76
2022/01/15 06:23:43;;;;;;;2.47;1.87;;;;;;;8.80;52.28;101324.56;4916683;29;20091;-76
2022/01/15 06:26:10;;;;;;;2.17;1.63;;;;;;;8.72;52.56;101323.03;4904022;29;20074;-75
2022/01/15 06:28:36;;;;;;;4.17;2.50;;;;;;;8.72;52.68;101345.31;4914332;29;20054;-75
2022/01/15 06:31:03;;;;;;;4.47;2.07;;;;;;;8.65;53.29;101342.69;4909847;29;20183;-75
2022/01/15 06:33:31;;;;;;;7.03;3.50;;;;;;;8.50;52.82;101301.44;4906611;29;20057;-72
2022/01/15 06:35:59;;;;;;;6.17;2.90;;;;;;;8.67;53.04;101334.06;4917197;29;20563;-74
2022/01/15 06:38:26;;;;;;;7.77;2.97;;;;;;;8.64;53.02;101326.22;4914496;29;20095;-70
2022/01/15 06:40:53;;;;;;;5.07;2.30;;;;;;;8.61;53.14;101316.41;4904681;29;20075;-71
2022/01/15 06:43:20;;;;;;;5.03;3.67;;;;;;;8.22;53.51;101274.41;4913789;29;20063;-72
2022/01/15 06:45:47;;;;;;;6.10;3.57;;;;;;;8.54;53.35;101322.13;4914546;29;20056;-73
2022/01/15 06:48:14;;;;;;;4.20;3.53;;;;;;;8.67;53.12;101320.97;4914462;29;20468;-71
2022/01/15 06:50:42;;;;;;;9.00;4.43;;;;;;;8.57;53.22;101320.78;4913382;29;20087;-71
2022/01/15 06:53:09;;;;;;;2.40;1.83;;;;;;;8.52;53.37;101304.00;4916172;29;20451;-71
2022/01/15 06:55:36;;;;;;;6.17;3.47;;;;;;;8.41;53.51;101293.72;4916450;29;20087;-72
2022/01/15 06:58:02;;;;;;;3.57;2.27;;;;;;;8.42;53.74;101303.78;4943399;29;20464;-72
2022/01/15 07:00:29;;;;;;;2.70;2.10;;;;;;;8.48;53.59;101308.38;4911335;29;20484;-71
2022/01/15 07:03:00;;;;;;;3.53;2.57;;;;;;;8.06;53.71;101247.38;4915884;29;20048;-75
2022/01/15 07:05:27;;;;;;;5.20;2.13;;;;;;;8.18;54.03;101284.38;4914983;29;20048;-76
2022/01/15 07:07:54;;;;;;;5.37;2.97;;;;;;;8.29;54.33;101313.25;4916982;29;20087;-72
2022/01/15 07:10:21;;;;;;;7.17;3.47;;;;;;;7.82;54.22;101246.59;4938135;29;20044;-74
2022/01/15 07:12:49;;;;;;;5.00;3.03;;;;;;;8.15;54.53;101311.84;4930171;29;20127;-74
2022/01/15 07:15:17;;;;;;;4.10;2.17;;;;;;;8.24;54.46;101316.78;4904647;29;20457;-73
2022/01/15 07:17:45;;;;;;;5.13;2.50;;;;;;;8.22;54.65;101316.16;4911679;29;20135;-75
2022/01/15 07:20:13;;;;;;;7.63;2.77;;;;;;;8.20;54.43;101314.72;4917068;29;20135;-75
2022/01/15 07:22:41;;;;;;;4.10;1.87;;;;;;;8.31;54.44;101336.97;4914681;29;20095;-74
2022/01/15 07:25:09;;;;;;;4.03;2.27;;;;;;;8.29;54.27;101316.88;4912295;29;20515;-75
2022/01/15 07:27:37;;;;;;;6.07;2.83;;;;;;;8.17;54.39;101288.25;4899319;29;20129;-75
2022/01/15 07:30:07;;;;;;;5.83;2.60;;;;;;;8.43;54.15;101325.81;4910586;29;20143;-73
2022/01/15 07:32:34;;;;;;;6.00;4.10;;;;;;;8.55;54.00;101334.13;4912864;29;20478;-73
2022/01/15 07:35:00;;;;;;;4.57;2.80;;;;;;;8.56;53.85;101321.88;4913593;29;20143;-72
2022/01/15 07:37:28;;;;;;;8.73;3.83;;;;;;;8.60;53.69;101330.59;4916943;29;20139;-79
2022/01/15 07:39:55;;;;;;;4.80;3.13;;;;;;;8.38;53.84;101297.03;4915107;29;20107;-71
2022/01/15 07:42:22;;;;;;;3.57;2.70;;;;;;;8.49;54.08;101319.25;4915167;29;20111;-74
2022/01/15 07:44:49;;;;;;;2.73;1.73;;;;;;;8.17;54.02;101271.56;4910408;29;20139;-78
2022/01/15 07:47:16;;;;;;;6.43;3.90;;;;;;;8.08;54.39;101307.25;4909753;29;20104;-75
2022/01/15 07:49:43;;;;;;;2.93;2.20;;;;;;;8.14;54.35;101319.34;4915339;29;20056;-77
2022/01/15 07:52:10;;;;;;;4.20;2.53;;;;;;;8.19;54.69;101330.56;4916771;29;20139;-77
2022/01/15 07:54:37;;;;;;;3.00;2.07;;;;;;;7.95;54.70;101296.38;4914894;29;20147;-73
2022/01/15 07:57:04;;;;;;;3.33;3.03;;;;;;;8.16;54.54;101325.50;4905394;29;20048;-64
2022/01/15 07:59:31;;;;;;;5.83;2.67;;;;;;;8.21;54.65;101339.53;4904398;29;20206;-66
2022/01/15 08:01:59;;;;;;;2.57;2.13;;;;;;;8.25;54.51;101339.88;4909519;29;20074;-68
2022/01/15 08:04:26;;;;;;;5.37;3.50;;;;;;;8.28;54.48;101344.94;4910276;29;20586;-69
2022/01/15 08:06:53;;;;;;;6.67;2.53;;;;;;;8.32;54.12;101335.00;4907676;29;20164;-64
2022/01/15 08:09:20;;;;;;;2.23;2.03;;;;;;;8.40;54.06;101333.81;4906217;29;20414;-64
2022/01/15 08:11:46;;;;;;;3.30;2.20;;;;;;;8.39;53.85;101335.75;4910913;29;20080;-65
2022/01/15 08:14:14;;;;;;;2.60;1.90;;;;;;;8.40;53.51;101319.88;4911294;29;20589;-64
2022/01/15 08:16:40;;;;;;;4.23;2.73;;;;;;;8.50;53.63;101354.34;4904122;29;20058;-65
2022/01/15 08:19:07;;;;;;;3.53;2.07;;;;;;;8.36;53.52;101307.53;4910553;29;20048;-64
2022/01/15 08:21:36;;;;;;;5.13;2.30;;;;;;;7.88;53.58;101228.09;4909825;29;20052;-65
2022/01/15 08:24:03;;;;;;;3.60;2.37;;;;;;;8.60;53.74;101353.69;4907201;29;20056;-63
2022/01/15 08:26:29;;;;;;;5.57;3.27;;;;;;;8.41;53.07;101290.94;4901614;29;20048;-64
2022/01/15 08:28:59;;;;;;;5.73;2.97;;;;;;;8.57;53.09;101311.59;4903743;29;20174;-64
2022/01/15 08:31:26;;;;;;;4.33;2.20;;;;;;;8.91;52.84;101343.16;4903488;29;20048;-64
2022/01/15 08:33:53;;;;;;;5.50;2.43;;;;;;;8.99;52.52;101363.09;4903296;29;20142;-64
2022/01/15 08:36:22;;;;;;;3.50;2.37;;;;;;;8.69;52.59;101327.16;4902191;29;20139;-64
2022/01/15 08:38:49;;;;;;;1.77;1.67;;;;;;;9.06;52.55;101373.22;4907705;29;20491;-65
2022/01/15 08:41:24;;;;;;;6.20;4.20;;;;;;;8.76;52.27;101305.56;4901907;29;20103;-65
2022/01/15 08:43:51;;;;;;;6.40;2.90;;;;;;;9.30;51.78;101369.22;4899695;29;20171;-64
2022/01/15 08:46:19;;;;;;;3.10;1.83;;;;;;;9.31;52.01;101375.63;4901707;29;20048;-64
2022/01/15 08:48:46;;;;;;;4.07;2.43;;;;;;;9.15;52.19;101361.41;4909278;29;20048;-64
2022/01/15 08:51:13;;;;;;;4.33;2.53;;;;;;;9.11;52.03;101364.97;4911215;29;20051;-65
2022/01/15 08:53:40;;;;;;;4.53;2.50;;;;;;;8.92;52.33;101369.91;4913099;29;20048;-65
2022/01/15 08:56:08;;;;;;;2.67;1.83;;;;;;;8.59;52.57;101321.41;4912900;29;20135;-65
2022/01/15 08:58:35;;;;;;;2.90;2.03;;;;;;;8.63;52.79;101353.22;4912124;29;20083;-65
2022/01/15 09:01:04;;;;;;;4.90;1.83;;;;;;;8.75;52.73;101362.38;4905127;29;20516;-65
2022/01/15 09:03:33;;;;;;;3.08;2.33;;;;;;;8.86;52.54;101374.56;4912401;29;20048;-63
2022/01/15 09:06:00;;;;;;;7.47;2.47;;;;;;;9.31;52.23;101381.22;4906315;29;20167;-65
2022/01/15 09:08:28;;;;;;;3.17;1.57;;;;;;;9.77;51.39;101384.75;4907272;29;20052;-64
2022/01/15 09:10:55;;;;;;;3.20;2.80;;;;;;;9.82;50.52;101370.91;4901247;29;20058;-65
2022/01/15 09:13:23;;;;;;;4.73;2.13;;;;;;;10.47;50.06;101389.72;4908811;29;20142;-65
2022/01/15 09:15:50;;;;;;;5.67;3.40;;;;;;;11.05;48.99;101390.94;4902395;29;20438;-65
2022/01/15 09:18:19;;;;;;;3.87;2.20;;;;;;;11.48;47.95;101382.69;4934570;29;20575;-65
2022/01/15 09:20:47;;;;;;;3.27;1.50;;;;;;;11.54;47.38;101388.06;4899917;29;20200;-65
2022/01/15 09:23:15;;;;;;;7.60;3.93;;;;;;;11.23;47.25;101383.28;4901739;29;20087;-64
2022/01/15 09:25:41;;;;;;;3.07;2.33;;;;;;;11.03;47.35;101393.16;4901655;29;20139;-65
2022/01/15 09:30:55;;;;;;;2.83;2.43;;;;;;;11.15;47.40;101393.84;4908709;29;21057;-65
2022/01/15 09:33:22;;;;;;;6.03;3.53;;;;;;;11.06;47.47;101397.38;4908278;29;20061;-65
2022/01/15 09:35:49;;;;;;;3.60;2.53;;;;;;;10.95;47.70;101406.78;4905224;29;20128;-65
2022/01/15 09:38:16;;;;;;;5.60;4.43;;;;;;;11.34;47.56;101401.84;4903270;29;21454;-65
2022/01/15 09:40:44;;;;;;;4.10;2.90;;;;;;;11.71;46.70;101395.47;4917837;29;20159;-64
2022/01/15 09:43:13;;;;;;;6.00;3.67;;;;;;;11.67;46.43;101394.31;4909197;29;20123;-63
2022/01/15 09:45:44;;;;;;;9.20;3.90;;;;;;;11.32;46.50;101382.56;4905716;29;20460;-65
2022/01/15 09:48:11;;;;;;;10.57;4.53;;;;;;;11.27;46.56;101392.84;4908618;29;20068;-65
2022/01/15 09:50:43;;;;;;;8.80;4.90;;;;;;;11.17;46.85;101381.56;4911610;29;20174;-65
2022/01/15 09:53:13;;;;;;;10.87;5.90;;;;;;;11.23;47.07;101405.66;4907120;29;20055;-65
2022/01/15 09:55:40;;;;;;;9.73;4.78;;;;;;;10.91;47.48;101417.63;4905873;29;20048;-64
2022/01/15 09:58:07;;;;;;;2.60;2.27;;;;;;;10.76;47.72;101406.25;4906579;29;20056;-65
2022/01/15 10:00:34;;;;;;;6.30;3.33;;;;;;;10.68;48.30;101401.97;4904617;29;20554;-63
2022/01/15 10:03:02;;;;;;;2.37;2.17;;;;;;;10.52;48.75;101420.47;4906211;29;22737;-64
2022/01/15 10:05:29;;;;;;;3.90;3.10;;;;;;;10.32;48.65;101378.31;4910076;29;20052;-64
2022/01/15 10:08:19;;;;;;;6.47;2.87;;;;;;;10.37;49.23;101411.91;4913659;29;20138;-64
2022/01/15 10:10:49;;;;;;;9.90;4.93;;;;;;;10.52;49.32;101414.06;4914359;29;20052;-64
2022/01/15 10:13:19;;;;;;;1.33;1.23;;;;;;;10.68;49.15;101415.94;4912337;29;20099;-66
2022/01/15 10:16:07;;;;;;;6.88;3.65;;;;;;;10.63;49.33;101410.28;4912845;29;20052;-64
2022/01/15 10:18:42;;;;;;;2.87;2.07;;;;;;;10.64;49.34;101412.81;4930901;29;20104;-64
2022/01/15 10:21:23;;;;;;;2.70;2.30;;;;;;;10.55;49.62;101410.75;4902068;29;20131;-63
2022/01/15 10:23:54;;;;;;;;;;;;;;;10.43;50.10;101414.53;4899463;29;20492;-64
2022/01/15 10:26:23;;;;;;;3.80;2.07;;;;;;;10.74;49.55;101411.28;4898805;29;19969;-64
2022/01/15 10:28:59;;;;;;;5.57;4.17;;;;;;;10.82;49.28;101410.81;4912355;29;20090;-64
2022/01/15 10:31:41;;;;;;;5.80;2.97;;;;;;;11.10;48.90;101404.97;4917975;29;20135;-64
2022/01/15 10:34:23;;;;;;;10.57;4.93;;;;;;;11.03;48.95;101415.50;4915111;29;20079;-64
2022/01/15 10:36:50;;;;;;;7.03;4.07;;;;;;;11.28;48.49;101414.97;4914391;29;20415;-65
2022/01/15 10:39:19;;;;;;;2.23;1.87;;;;;;;11.30;48.69;101395.09;4911574;29;20075;-66
2022/01/15 10:41:47;;;;;;;11.23;5.37;;;;;;;11.52;48.59;101384.69;4915467;29;20135;-64
2022/01/15 10:44:33;;;;;;;7.63;3.27;;;;;;;11.65;48.43;101410.50;4916311;29;20135;-64
2022/01/15 10:47:12;;;;;;;6.27;3.10;;;;;;;11.77;48.08;101400.84;4915379;29;20052;-64
2022/01/15 10:49:41;;;;;;;9.67;5.07;;;;;;;12.16;47.80;101413.72;4914999;29;20096;-65
2022/01/15 10:52:20;;;;;;;3.87;3.47;;;;;;;12.99;47.59;101417.50;4913604;29;20106;-63
2022/01/15 10:54:59;;;;;;;5.30;4.10;;;;;;;13.61;46.07;101414.84;4917289;29;20139;-64
2022/01/15 10:57:30;;;;;;;9.33;5.80;;;;;;;13.56;44.90;101407.22;4918051;29;20131;-66
2022/01/15 11:00:22;;;;;;;9.67;5.10;;;;;;;13.59;44.63;101411.44;4915822;29;20381;-62
2022/01/15 11:02:58;;;;;;;3.17;2.33;;;;;;;13.45;44.57;101420.41;4917089;29;20135;-65
2022/01/15 11:05:38;;;;;;;3.93;2.60;;;;;;;13.34;44.40;101415.09;4915071;29;20104;-64
2022/01/15 11:08:18;;;;;;;10.35;5.95;;;;;;;13.22;44.69;101406.88;4914775;29;20139;-64
2022/01/15 11:10:52;;;;;;;9.70;5.07;;;;;;;13.23;44.88;101412.22;4913896;29;20143;-63
2022/01/15 11:13:30;;;;;;;7.47;4.20;;;;;;;12.98;44.86;101372.91;4905413;29;20147;-64
2022/01/15 11:16:00;;;;;;;8.73;5.00;;;;;;;13.08;45.03;101388.91;4905004;29;20052;-64
2022/01/15 11:18:36;;;;;;;14.53;5.57;;;;;;;13.31;44.91;101410.88;4909835;29;20419;-65
2022/01/15 11:21:06;;;;;;;13.47;6.83;;;;;;;13.30;44.88;101400.78;4904020;29;20430;-64
2022/01/15 11:23:35;;;;;;;7.95;3.60;;;;;;;13.20;44.87;101398.75;4908187;29;20487;-64
2022/01/15 11:26:12;;;;;;;7.33;4.30;;;;;;;13.18;44.93;101394.53;4910134;29;20072;-64
2022/01/15 11:28:41;;;;;;;9.07;4.80;;;;;;;12.99;44.50;101343.72;4902760;29;20135;-63
2022/01/15 11:31:10;;;;;;;4.37;2.87;;;;;;;13.33;44.61;101391.78;4912532;29;20119;-63
2022/01/15 11:33:55;;;;;;;18.95;7.07;;;;;;;13.32;44.22;101378.88;4910995;29;20057;-64
2022/01/15 11:36:37;;;;;;;10.10;5.63;;;;;;;13.67;44.11;101386.47;4907515;29;20131;-63
2022/01/15 11:39:06;;;;;;;5.10;3.60;;;;;;;13.82;43.89;101394.06;4908003;29;20058;-63
2022/01/15 11:41:42;;;;;;;4.65;2.78;;;;;;;13.64;43.62;101377.75;4905736;29;20060;-65
2022/01/15 11:44:15;;;;;;;5.40;4.90;;;;;;;13.85;43.45;101365.41;4919355;29;21136;-64
2022/01/15 11:46:49;;;;;;;18.43;7.10;;;;;;;14.21;43.08;101379.38;4907603;29;20111;-64
2022/01/15 11:49:29;;;;;;;4.93;2.53;;;;;;;14.10;42.15;101367.31;4905759;29;20202;-67
2022/01/15 11:51:57;;;;;;;10.35;4.35;;;;;;;14.40;42.00;101374.81;4903821;29;20146;-65
2022/01/15 11:54:24;;;;;;;8.23;4.27;;;;;;;14.40;41.07;101360.78;4910155;29;20206;-64
2022/01/15 11:56:51;;;;;;;10.63;5.73;;;;;;;14.26;41.53;101365.31;4907487;29;20912;-65